WEATHER

Warnervale Skycam

North West View

North West View

South West View

South West View

Mean Sea Level Pressure Analysis (Synoptic Chart)

Synoptic Chart

  • YSSY TAF

    TAF YSSY 261105Z 2612/2718 28008KT 9999 SCT020 FM270000 01010KT 9999 FEW030 FM270200 03015KT CAVOK FM271200 36010KT CAVOK PROB30 2618/2622 4000 BR RMK T 12 11 10 11 Q 1022 1022 1020 1022

  • YSSY METAR

    TTF METAR YSSY 261530Z 34006KT 9999 FEW030 10/08 Q1022 RMK RF00.0/000.4 NOSIG

Sydney Rainfall Radar

128 km Sydney Radar

Sydney Rainfall Radar

 

512 km Sydney Radar

Sydney Rainfall Radar 512km

 

Rainfall radar and satellite images obtained from the Bureau of Meteorology. All information provided on this page is for general information and should NOT be used for flight planning.